Time;durP1;ratioP1;P1;durP2;ratioP2;P2;SDS_P1;SDS_P2;PMS_P1;PMS_P2;Temp;Humidity;BMP_temperature;BMP_pressure;BME280_temperature;BME280_humidity;BME280_pressure;Samples;Min_cycle;Max_cycle;Signal;HPM_P1;HPM_P2
2021/11/05 00:00:53;;;;;;;35.15;21.12;;;;;;;;;;143744;630;45023;-93
2021/11/05 00:03:55;;;;;;;;;;;;;;;;;;;;;
2021/11/05 05:31:41;;;;;;;24.15;21.02;;;;;;;;;;143738;597;47022;-88
2021/11/05 05:34:07;;;;;;;25.85;19.12;;;;;;;;;;143739;582;47023;-92
2021/11/05 05:36:35;;;;;;;31.98;19.62;;;;;;;;;;143740;612;46010;-91
2021/11/05 05:39:02;;;;;;;35.42;20.10;;;;;;;;;;143737;601;47022;-91
2021/11/05 05:41:33;;;;;;;30.00;19.73;;;;;;;;;;143736;590;46011;-93
2021/11/05 05:44:01;;;;;;;27.27;20.02;;;;;;;;;;143740;648;47020;-93
2021/11/05 05:46:27;;;;;;;34.17;18.42;;;;;;;;;;143740;570;47020;-90
2021/11/05 05:49:21;;;;;;;32.45;20.50;;;;;;;;;;143740;586;47022;-95
2021/11/05 05:52:17;;;;;;;;;;;;;;;;;;;;;
2021/11/05 05:54:53;;;;;;;31.00;18.55;;;;;;;;;;143745;600;45020;-84
2021/11/05 05:57:44;;;;;;;31.40;21.33;;;;;;;;;;143744;640;45021;-83
2021/11/05 06:00:26;;;;;;;24.95;19.50;;;;;;;;;;143742;607;46020;-90
2021/11/05 06:03:01;;;;;;;24.65;20.70;;;;;;;;;;143739;566;46010;-89
2021/11/05 06:05:30;;;;;;;30.65;20.92;;;;;;;;;;143741;578;46021;-91
2021/11/05 06:08:04;;;;;;;32.78;19.98;;;;;;;;;;143744;571;47020;-90
2021/11/05 06:10:31;;;;;;;26.98;18.65;;;;;;;;;;143739;564;47022;-90
2021/11/05 06:12:58;;;;;;;27.02;20.55;;;;;;;;;;143737;595;46026;-90
2021/11/05 06:15:25;;;;;;;36.50;20.05;;;;;;;;;;143740;582;46020;-89
2021/11/05 06:17:52;;;;;;;29.95;20.58;;;;;;;;;;143739;583;47010;-90
2021/11/05 06:20:46;;;;;;;;;;;;;;;;;;;;;
2021/11/05 06:23:15;;;;;;;31.15;21.85;;;;;;;;;;143738;588;46020;-90
2021/11/05 06:25:42;;;;;;;28.65;21.58;;;;;;;;;;143740;589;46020;-89
2021/11/05 06:28:09;;;;;;;36.20;22.73;;;;;;;;;;143739;587;47021;-88
2021/11/05 06:30:36;;;;;;;31.60;24.37;;;;;;;;;;143746;624;47022;-88
2021/11/05 06:33:04;;;;;;;29.95;22.17;;;;;;;;;;143753;570;46020;-88
2021/11/05 06:35:30;;;;;;;33.65;21.98;;;;;;;;;;143755;647;47020;-90
2021/11/05 06:37:58;;;;;;;37.25;22.58;;;;;;;;;;143755;578;45031;-88
2021/11/05 06:40:27;;;;;;;34.58;23.08;;;;;;;;;;143753;579;47022;-87
2021/11/05 06:42:54;;;;;;;33.45;23.02;;;;;;;;;;143739;577;46026;-88
2021/11/05 06:45:24;;;;;;;35.17;23.12;;;;;;;;;;143754;579;47020;-88
2021/11/05 06:47:51;;;;;;;38.20;23.15;;;;;;;;;;143757;618;46019;-87
2021/11/05 06:50:18;;;;;;;29.37;21.23;;;;;;;;;;143753;592;47023;-88
2021/11/05 06:52:44;;;;;;;34.30;22.25;;;;;;;;;;143752;585;47020;-91
2021/11/05 06:55:11;;;;;;;40.17;24.42;;;;;;;;;;143740;567;47020;-88
2021/11/05 06:57:38;;;;;;;33.92;24.50;;;;;;;;;;143754;587;45021;-88
2021/11/05 07:00:07;;;;;;;28.65;20.60;;;;;;;;;;143752;604;47020;-89
2021/11/05 07:02:41;;;;;;;35.40;22.15;;;;;;;;;;143753;591;46020;-89
2021/11/05 07:05:12;;;;;;;33.80;23.20;;;;;;;;;;143754;579;47021;-87
2021/11/05 07:07:42;;;;;;;35.67;22.37;;;;;;;;;;143754;676;45020;-87
2021/11/05 07:10:10;;;;;;;42.55;25.20;;;;;;;;;;143751;585;47022;-86
2021/11/05 07:12:38;;;;;;;43.10;28.00;;;;;;;;;;143751;583;45914;-87
2021/11/05 07:15:06;;;;;;;36.50;25.42;;;;;;;;;;143753;726;45020;-89
2021/11/05 07:17:33;;;;;;;50.28;28.87;;;;;;;;;;143756;569;47020;-90
2021/11/05 07:19:59;;;;;;;54.13;29.92;;;;;;;;;;143754;570;46023;-90
2021/11/05 07:22:26;;;;;;;48.03;29.95;;;;;;;;;;143737;590;47010;-90
2021/11/05 07:24:53;;;;;;;53.35;30.12;;;;;;;;;;143753;600;48020;-86
2021/11/05 07:27:20;;;;;;;46.97;30.55;;;;;;;;;;143755;649;45021;-87
2021/11/05 07:29:47;;;;;;;46.63;30.58;;;;;;;;;;143750;578;49020;-88
2021/11/05 07:32:14;;;;;;;48.05;30.30;;;;;;;;;;143749;598;46914;-87
2021/11/05 07:34:41;;;;;;;51.33;30.17;;;;;;;;;;143753;571;47021;-88
2021/11/05 07:37:13;;;;;;;46.60;31.58;;;;;;;;;;143754;587;45020;-89
2021/11/05 07:39:40;;;;;;;51.03;29.33;;;;;;;;;;143752;651;47022;-87
2021/11/05 07:42:08;;;;;;;53.33;32.05;;;;;;;;;;143752;663;45914;-87
2021/11/05 07:44:34;;;;;;;47.88;29.87;;;;;;;;;;143753;564;47020;-87
2021/11/05 07:47:01;;;;;;;46.22;32.53;;;;;;;;;;143755;589;46020;-88
2021/11/05 07:49:28;;;;;;;47.38;30.35;;;;;;;;;;143753;601;47021;-88
2021/11/05 07:51:55;;;;;;;48.20;30.90;;;;;;;;;;143751;566;45913;-90
2021/11/05 07:54:22;;;;;;;48.42;30.98;;;;;;;;;;143747;565;46020;-88
2021/11/05 07:56:50;;;;;;;46.40;29.60;;;;;;;;;;143753;576;46018;-87
2021/11/05 07:59:17;;;;;;;46.90;31.05;;;;;;;;;;143753;577;47022;-87
2021/11/05 08:01:44;;;;;;;50.67;30.05;;;;;;;;;;143751;602;45914;-89
2021/11/05 08:04:11;;;;;;;41.37;28.10;;;;;;;;;;143753;604;47021;-88
2021/11/05 08:06:38;;;;;;;38.47;25.95;;;;;;;;;;143754;598;45020;-90
2021/11/05 08:09:05;;;;;;;29.95;19.48;;;;;;;;;;143755;580;46022;-88
2021/11/05 08:11:35;;;;;;;31.62;20.83;;;;;;;;;;143751;599;45914;-87
2021/11/05 08:14:02;;;;;;;31.92;19.25;;;;;;;;;;143755;583;47020;-89
2021/11/05 08:16:29;;;;;;;28.65;22.62;;;;;;;;;;143754;651;45020;-88
2021/11/05 08:18:56;;;;;;;36.25;20.90;;;;;;;;;;143752;575;47023;-86
2021/11/05 08:21:23;;;;;;;30.50;18.48;;;;;;;;;;143753;571;46914;-86
2021/11/05 08:23:50;;;;;;;26.75;21.00;;;;;;;;;;143753;627;46020;-87
2021/11/05 08:26:17;;;;;;;24.12;19.33;;;;;;;;;;143755;580;45021;-89
2021/11/05 08:28:44;;;;;;;38.88;18.90;;;;;;;;;;143752;594;47020;-88
2021/11/05 08:31:15;;;;;;;28.30;20.62;;;;;;;;;;143750;603;45914;-89
2021/11/05 08:33:44;;;;;;;30.27;22.02;;;;;;;;;;143755;614;46021;-90
2021/11/05 08:36:17;;;;;;;26.08;17.75;;;;;;;;;;143754;592;46020;-89
2021/11/05 08:38:44;;;;;;;35.47;21.62;;;;;;;;;;143752;566;47022;-86
2021/11/05 08:41:17;;;;;;;29.25;20.33;;;;;;;;;;143751;574;46914;-91
2021/11/05 08:43:46;;;;;;;26.37;20.20;;;;;;;;;;143749;566;46020;-88
2021/11/05 08:46:20;;;;;;;31.30;20.83;;;;;;;;;;143747;595;45029;-86
2021/11/05 08:48:53;;;;;;;29.52;20.48;;;;;;;;;;143734;575;47023;-84
2021/11/05 08:51:25;;;;;;;34.42;22.83;;;;;;;;;;143736;603;46010;-86
2021/11/05 08:53:55;;;;;;;36.15;21.55;;;;;;;;;;143745;583;47020;-86
2021/11/05 08:56:22;;;;;;;31.55;18.85;;;;;;;;;;143749;572;45045;-87
2021/11/05 08:58:48;;;;;;;36.15;17.02;;;;;;;;;;143746;618;47020;-87
2021/11/05 09:01:17;;;;;;;30.37;19.55;;;;;;;;;;143747;572;46020;-87
2021/11/05 09:03:44;;;;;;;25.40;19.42;;;;;;;;;;143747;632;47021;-89
2021/11/05 09:06:10;;;;;;;32.47;20.40;;;;;;;;;;143750;616;45020;-89
2021/11/05 09:08:38;;;;;;;27.30;18.30;;;;;;;;;;143745;585;47020;-89
2021/11/05 09:11:06;;;;;;;29.70;19.50;;;;;;;;;;143746;616;45914;-88
2021/11/05 09:13:33;;;;;;;25.00;18.48;;;;;;;;;;143746;582;47020;-88
2021/11/05 09:16:01;;;;;;;32.08;19.50;;;;;;;;;;143749;587;46020;-88
2021/11/05 09:18:28;;;;;;;27.05;18.30;;;;;;;;;;143748;606;47020;-87
2021/11/05 09:20:55;;;;;;;24.30;19.17;;;;;;;;;;143748;590;45914;-91
2021/11/05 09:23:24;;;;;;;28.20;17.33;;;;;;;;;;143748;608;46020;-87
2021/11/05 09:25:51;;;;;;;31.40;17.67;;;;;;;;;;143751;613;46018;-89
2021/11/05 09:28:18;;;;;;;34.47;20.12;;;;;;;;;;143747;595;47022;-88
2021/11/05 09:30:51;;;;;;;29.08;19.83;;;;;;;;;;143745;641;45914;-89
2021/11/05 09:33:19;;;;;;;28.23;20.75;;;;;;;;;;143746;600;47020;-87
2021/11/05 09:35:46;;;;;;;29.17;20.25;;;;;;;;;;143749;592;45020;-87
2021/11/05 09:38:14;;;;;;;31.95;19.92;;;;;;;;;;143744;571;47021;-87
2021/11/05 09:41:03;;;;;;;39.97;21.33;;;;;;;;;;143747;607;45914;-89
2021/11/05 09:43:30;;;;;;;31.17;21.98;;;;;;;;;;143747;631;47020;-87
2021/11/05 09:45:58;;;;;;;36.42;22.90;;;;;;;;;;143750;570;46019;-87
2021/11/05 09:48:26;;;;;;;32.30;23.75;;;;;;;;;;143747;581;47023;-87
2021/11/05 09:50:53;;;;;;;26.08;22.85;;;;;;;;;;143747;666;45914;-87
2021/11/05 09:53:24;;;;;;;38.90;22.35;;;;;;;;;;143750;576;46020;-87
2021/11/05 09:55:52;;;;;;;35.78;23.45;;;;;;;;;;143749;613;45021;-88
2021/11/05 09:58:18;;;;;;;30.58;22.50;;;;;;;;;;143747;569;47022;-88
2021/11/05 10:00:45;;;;;;;23.83;20.33;;;;;;;;;;143747;602;45914;-87
2021/11/05 10:03:12;;;;;;;24.80;18.77;;;;;;;;;;143747;609;47021;-87
2021/11/05 10:05:40;;;;;;;25.52;20.48;;;;;;;;;;143750;597;46018;-88
2021/11/05 10:08:07;;;;;;;28.55;20.75;;;;;;;;;;143744;593;47022;-88
2021/11/05 10:10:40;;;;;;;26.27;18.83;;;;;;;;;;143746;626;46914;-87
2021/11/05 10:13:12;;;;;;;25.92;19.02;;;;;;;;;;143750;582;46020;-88
2021/11/05 10:15:46;;;;;;;29.00;20.75;;;;;;;;;;143748;565;46019;-87
2021/11/05 10:18:31;;;;;;;30.70;19.33;;;;;;;;;;143748;606;47023;-86
2021/11/05 10:21:14;;;;;;;30.90;21.98;;;;;;;;;;143748;570;45913;-87
2021/11/05 10:23:43;;;;;;;33.30;21.83;;;;;;;;;;143748;567;46044;-86
2021/11/05 10:26:26;;;;;;;28.87;18.75;;;;;;;;;;143749;597;46018;-87
2021/11/05 10:28:53;;;;;;;30.85;21.23;;;;;;;;;;143747;593;46046;-86
2021/11/05 10:31:19;;;;;;;31.08;19.95;;;;;;;;;;143746;595;46914;-90
2021/11/05 10:33:48;;;;;;;32.33;20.70;;;;;;;;;;143749;600;46020;-88
2021/11/05 10:36:18;;;;;;;28.00;20.37;;;;;;;;;;143749;620;47018;-88
2021/11/05 10:38:54;;;;;;;29.60;20.77;;;;;;;;;;143745;621;47022;-86
2021/11/05 10:41:23;;;;;;;40.33;19.27;;;;;;;;;;143748;566;46020;-87
2021/11/05 10:43:58;;;;;;;34.50;21.00;;;;;;;;;;143750;603;47020;-87
2021/11/05 10:46:43;;;;;;;30.60;19.92;;;;;;;;;;143750;639;47019;-88
2021/11/05 10:49:32;;;;;;;31.85;20.45;;;;;;;;;;143747;584;47024;-88
2021/11/05 10:52:23;;;;;;;29.48;19.20;;;;;;;;;;143749;602;45914;-87
2021/11/05 10:54:58;;;;;;;24.30;18.55;;;;;;;;;;143749;604;46021;-86
2021/11/05 10:57:44;;;;;;;31.48;19.83;;;;;;;;;;143751;601;47018;-85
2021/11/05 11:00:29;;;;;;;31.20;19.40;;;;;;;;;;143745;638;47022;-87
2021/11/05 11:03:07;;;;;;;32.65;19.62;;;;;;;;;;143747;616;46914;-87
2021/11/05 11:05:35;;;;;;;23.98;19.12;;;;;;;;;;143747;582;47020;-86
2021/11/05 11:08:05;;;;;;;27.85;19.98;;;;;;;;;;143748;605;47020;-87
2021/11/05 11:10:36;;;;;;;26.17;19.45;;;;;;;;;;143746;569;47023;-86
2021/11/05 11:13:04;;;;;;;28.67;19.75;;;;;;;;;;143747;569;46913;-85
2021/11/05 11:15:36;;;;;;;25.70;19.65;;;;;;;;;;143751;627;46039;-86
2021/11/05 11:18:04;;;;;;;24.35;18.92;;;;;;;;;;143752;596;46021;-89
2021/11/05 11:20:39;;;;;;;28.33;19.12;;;;;;;;;;143735;584;47020;-88
2021/11/05 11:23:06;;;;;;;40.88;20.85;;;;;;;;;;143747;600;45914;-88
2021/11/05 11:25:33;;;;;;;30.08;19.55;;;;;;;;;;143747;598;47021;-87
2021/11/05 11:28:00;;;;;;;30.98;18.00;;;;;;;;;;143750;724;45020;-87
2021/11/05 11:30:27;;;;;;;30.27;18.27;;;;;;;;;;143744;569;49026;-87
2021/11/05 11:32:57;;;;;;;31.33;18.23;;;;;;;;;;143749;590;45914;-87
2021/11/05 11:35:25;;;;;;;27.80;17.70;;;;;;;;;;143752;615;46020;-87
2021/11/05 11:37:52;;;;;;;26.62;18.12;;;;;;;;;;143752;592;45021;-88
2021/11/05 11:40:19;;;;;;;29.35;17.02;;;;;;;;;;143746;618;47023;-87
2021/11/05 11:42:49;;;;;;;28.50;18.17;;;;;;;;;;143750;564;45913;-86
2021/11/05 11:45:17;;;;;;;29.40;18.83;;;;;;;;;;143747;664;47020;-87
2021/11/05 11:47:46;;;;;;;23.48;17.65;;;;;;;;;;143750;583;45021;-87
2021/11/05 11:50:31;;;;;;;26.40;17.17;;;;;;;;;;143752;594;47022;-88
2021/11/05 11:53:09;;;;;;;23.87;16.25;;;;;;;;;;143747;619;45914;-86
2021/11/05 11:55:42;;;;;;;29.80;18.05;;;;;;;;;;143737;654;47020;-86
2021/11/05 11:58:17;;;;;;;22.35;19.30;;;;;;;;;;143751;594;45020;-89
2021/11/05 12:00:46;;;;;;;26.85;18.58;;;;;;;;;;143745;569;47022;-87
2021/11/05 12:03:16;;;;;;;27.08;17.85;;;;;;;;;;143750;652;45915;-86
2021/11/05 12:05:51;;;;;;;23.73;17.40;;;;;;;;;;143749;571;47020;-87
2021/11/05 12:08:41;;;;;;;22.60;16.75;;;;;;;;;;143739;653;46020;-87
2021/11/05 12:11:28;;;;;;;34.85;18.67;;;;;;;;;;143748;577;47023;-88
2021/11/05 12:14:09;;;;;;;22.75;17.67;;;;;;;;;;143748;569;45914;-88
2021/11/05 12:16:37;;;;;;;28.35;16.92;;;;;;;;;;143751;597;45021;-86
2021/11/05 12:19:08;;;;;;;26.00;17.02;;;;;;;;;;143751;627;45020;-86
2021/11/05 12:21:37;;;;;;;23.75;15.73;;;;;;;;;;143736;574;47022;-86
2021/11/05 12:24:34;;;;;;;30.02;19.90;;;;;;;;;;143749;564;45914;-86
2021/11/05 12:27:32;;;;;;;19.30;15.77;;;;;;;;;;143736;576;47020;-87
2021/11/05 12:30:10;;;;;;;20.92;16.75;;;;;;;;;;143746;603;46020;-87
2021/11/05 12:32:38;;;;;;;26.30;15.95;;;;;;;;;;143730;566;47023;-86
2021/11/05 12:35:17;;;;;;;26.50;18.60;;;;;;;;;;143734;679;46010;-86
2021/11/05 12:37:59;;;;;;;30.12;18.62;;;;;;;;;;143735;631;46021;-87
2021/11/05 12:40:42;;;;;;;25.02;18.42;;;;;;;;;;143736;602;46010;-87
2021/11/05 12:43:32;;;;;;;20.33;16.45;;;;;;;;;;143731;653;47022;-85
2021/11/05 12:46:06;;;;;;;24.63;14.52;;;;;;;;;;143734;565;46011;-86
2021/11/05 12:48:54;;;;;;;23.48;16.10;;;;;;;;;;143736;689;47020;-87
2021/11/05 12:51:45;;;;;;;17.65;13.50;;;;;;;;;;143736;656;46023;-87
2021/11/05 12:54:23;;;;;;;22.77;13.75;;;;;;;;;;143732;648;47023;-86
2021/11/05 12:57:16;;;;;;;22.65;13.70;;;;;;;;;;143734;626;46010;-87
2021/11/05 12:59:51;;;;;;;18.27;13.38;;;;;;;;;;143735;696;46020;-87
2021/11/05 13:02:23;;;;;;;17.52;11.38;;;;;;;;;;143735;569;47010;-85
2021/11/05 13:04:52;;;;;;;16.65;12.55;;;;;;;;;;143733;607;47022;-86
2021/11/05 13:07:19;;;;;;;18.08;12.52;;;;;;;;;;143734;646;46010;-85
2021/11/05 13:09:49;;;;;;;19.98;14.80;;;;;;;;;;143736;613;47021;-86
2021/11/05 13:12:21;;;;;;;15.68;12.75;;;;;;;;;;143736;588;46026;-87
2021/11/05 13:15:03;;;;;;;22.87;12.88;;;;;;;;;;143734;600;47020;-87
2021/11/05 13:17:37;;;;;;;25.90;15.03;;;;;;;;;;143732;587;46020;-86
2021/11/05 13:20:21;;;;;;;15.65;13.30;;;;;;;;;;143735;610;47020;-85
2021/11/05 13:22:48;;;;;;;19.40;13.50;;;;;;;;;;143736;600;47011;-85
2021/11/05 13:25:30;;;;;;;19.12;13.27;;;;;;;;;;143735;617;46020;-85
2021/11/05 13:28:15;;;;;;;22.00;12.98;;;;;;;;;;143734;576;46010;-85
2021/11/05 13:30:56;;;;;;;20.30;12.55;;;;;;;;;;143742;600;46021;-85
2021/11/05 13:33:43;;;;;;;21.65;13.52;;;;;;;;;;143751;611;46018;-85
2021/11/05 13:36:11;;;;;;;23.20;13.82;;;;;;;;;;143736;609;47022;-86
2021/11/05 13:38:46;;;;;;;19.23;14.40;;;;;;;;;;143749;585;46049;-84
2021/11/05 13:41:25;;;;;;;22.87;13.27;;;;;;;;;;143751;633;45020;-85
2021/11/05 13:43:58;;;;;;;20.75;14.02;;;;;;;;;;143751;658;45020;-86
2021/11/05 13:46:29;;;;;;;25.33;14.82;;;;;;;;;;143750;591;46023;-85
2021/11/05 13:49:01;;;;;;;29.83;12.85;;;;;;;;;;143747;588;46915;-85
2021/11/05 13:51:41;;;;;;;17.25;12.57;;;;;;;;;;143736;570;47020;-84
2021/11/05 13:54:11;;;;;;;17.27;11.88;;;;;;;;;;143751;632;46018;-83
2021/11/05 13:56:46;;;;;;;21.92;13.48;;;;;;;;;;143748;657;47022;-85
2021/11/05 13:59:16;;;;;;;22.75;14.82;;;;;;;;;;143748;575;45916;-83
2021/11/05 14:01:47;;;;;;;30.20;13.27;;;;;;;;;;143749;651;47021;-84
2021/11/05 14:04:16;;;;;;;15.13;12.73;;;;;;;;;;143750;597;45020;-84
2021/11/05 14:06:54;;;;;;;22.83;14.20;;;;;;;;;;143748;594;47022;-85
2021/11/05 14:09:21;;;;;;;;;;;;;;;;;;143752;981;45916;-83
2021/11/05 14:11:56;;;;;;;20.23;14.40;;;;;;;;;;143758;599;47020;-87
2021/11/05 14:14:32;;;;;;;16.33;12.82;;;;;;;;;;143751;674;45020;-87
2021/11/05 14:17:02;;;;;;;26.17;14.15;;;;;;;;;;143747;595;47020;-86
2021/11/05 14:19:33;;;;;;;21.27;13.65;;;;;;;;;;143748;564;46916;-85
2021/11/05 14:22:22;;;;;;;;;;;;;;;;;;;;;
2021/11/05 14:24:54;;;;;;;21.75;14.98;;;;;;;;;;143749;569;47020;-85
2021/11/05 14:27:32;;;;;;;18.10;13.15;;;;;;;;;;143746;597;47022;-86
2021/11/05 14:30:15;;;;;;;20.12;13.07;;;;;;;;;;143748;588;45916;-84
2021/11/05 14:32:43;;;;;;;30.45;15.45;;;;;;;;;;143749;629;47020;-85
2021/11/05 14:35:21;;;;;;;22.20;14.82;;;;;;;;;;143738;654;47012;-85
2021/11/05 14:38:04;;;;;;;21.80;15.73;;;;;;;;;;143747;596;47022;-86
2021/11/05 14:40:43;;;;;;;20.20;15.15;;;;;;;;;;143748;569;45915;-87
2021/11/05 14:43:15;;;;;;;19.25;13.68;;;;;;;;;;143749;584;47020;-85
2021/11/05 14:46:03;;;;;;;20.45;13.88;;;;;;;;;;143751;597;46018;-85
2021/11/05 14:48:31;;;;;;;22.62;14.52;;;;;;;;;;143747;571;47024;-85
2021/11/05 14:51:00;;;;;;;17.05;13.82;;;;;;;;;;143747;595;45914;-86
2021/11/05 14:53:37;;;;;;;21.65;14.52;;;;;;;;;;143736;582;47021;-85
2021/11/05 14:56:30;;;;;;;21.87;15.32;;;;;;;;;;143752;638;45024;-87
2021/11/05 14:58:59;;;;;;;16.95;15.10;;;;;;;;;;143747;593;47022;-84
2021/11/05 15:01:28;;;;;;;22.13;15.45;;;;;;;;;;143748;578;45914;-85
2021/11/05 15:04:08;;;;;;;25.92;15.07;;;;;;;;;;143750;611;46018;-86
2021/11/05 15:06:41;;;;;;;20.33;14.05;;;;;;;;;;143752;655;46019;-86
2021/11/05 15:09:11;;;;;;;21.65;14.85;;;;;;;;;;143748;571;47023;-86
2021/11/05 15:11:39;;;;;;;22.35;14.38;;;;;;;;;;143735;648;47012;-86
2021/11/05 15:14:06;;;;;;;30.95;15.60;;;;;;;;;;143750;594;46020;-87
2021/11/05 15:16:35;;;;;;;31.08;15.77;;;;;;;;;;143752;589;45021;-87
2021/11/05 15:19:03;;;;;;;21.52;14.38;;;;;;;;;;143735;566;47022;-86
2021/11/05 15:21:33;;;;;;;23.65;16.50;;;;;;;;;;143747;627;46021;-86
2021/11/05 15:24:04;;;;;;;25.33;16.87;;;;;;;;;;143733;581;47021;-88
2021/11/05 15:26:31;;;;;;;24.83;14.25;;;;;;;;;;143739;608;46020;-87
2021/11/05 15:28:59;;;;;;;24.42;17.42;;;;;;;;;;143747;583;47022;-86
2021/11/05 15:31:27;;;;;;;32.55;18.98;;;;;;;;;;143748;613;45914;-86
2021/11/05 15:33:56;;;;;;;34.88;18.65;;;;;;;;;;143750;661;47020;-86
2021/11/05 15:36:28;;;;;;;29.40;19.58;;;;;;;;;;143751;580;45021;-87
2021/11/05 15:38:55;;;;;;;27.90;19.10;;;;;;;;;;143746;587;47023;-88
2021/11/05 15:41:27;;;;;;;24.67;18.77;;;;;;;;;;143748;586;45914;-88
2021/11/05 15:43:54;;;;;;;47.77;32.20;;;;;;;;;;143750;581;46021;-87
2021/11/05 15:46:33;;;;;;;47.60;35.58;;;;;;;;;;143751;677;47018;-89
2021/11/05 15:49:00;;;;;;;43.85;29.37;;;;;;;;;;143740;587;46020;-86
2021/11/05 15:51:28;;;;;;;38.78;25.40;;;;;;;;;;143747;579;45914;-87
2021/11/05 15:53:55;;;;;;;33.05;22.73;;;;;;;;;;143749;583;47020;-87
2021/11/05 15:56:23;;;;;;;29.50;22.50;;;;;;;;;;143749;573;47020;-85
2021/11/05 15:58:49;;;;;;;36.63;22.98;;;;;;;;;;143746;581;47021;-87
2021/11/05 16:01:19;;;;;;;33.13;22.23;;;;;;;;;;143736;569;46012;-86
2021/11/05 16:03:49;;;;;;;38.75;26.55;;;;;;;;;;143750;564;47020;-86
2021/11/05 16:06:16;;;;;;;32.42;26.55;;;;;;;;;;143751;566;46020;-86
2021/11/05 16:08:43;;;;;;;36.47;28.48;;;;;;;;;;143744;582;47023;-87
2021/11/05 16:11:11;;;;;;;36.80;26.67;;;;;;;;;;143746;571;45913;-87
2021/11/05 16:13:39;;;;;;;33.03;23.75;;;;;;;;;;143749;588;46020;-88
2021/11/05 16:16:15;;;;;;;31.27;23.60;;;;;;;;;;143749;572;46020;-87
2021/11/05 16:18:42;;;;;;;37.88;24.02;;;;;;;;;;143745;637;47020;-86
2021/11/05 16:21:09;;;;;;;34.00;22.58;;;;;;;;;;143746;571;45914;-85
2021/11/05 16:23:36;;;;;;;37.95;22.42;;;;;;;;;;143748;569;47020;-86
2021/11/05 16:26:03;;;;;;;26.08;22.02;;;;;;;;;;143750;571;45020;-87
2021/11/05 16:28:32;;;;;;;26.83;21.67;;;;;;;;;;143734;576;47022;-85
2021/11/05 16:30:59;;;;;;;32.63;21.83;;;;;;;;;;143748;587;45914;-86
2021/11/05 16:33:27;;;;;;;25.08;18.58;;;;;;;;;;143747;576;47020;-85
2021/11/05 16:35:54;;;;;;;34.55;20.17;;;;;;;;;;143737;614;46012;-85
2021/11/05 16:38:21;;;;;;;25.50;19.08;;;;;;;;;;143739;645;46021;-86
2021/11/05 16:40:49;;;;;;;23.67;19.37;;;;;;;;;;143747;587;45914;-87
2021/11/05 16:43:21;;;;;;;21.52;18.08;;;;;;;;;;143747;588;47020;-86
2021/11/05 16:45:47;;;;;;;36.30;19.85;;;;;;;;;;143738;636;46012;-86
2021/11/05 16:48:14;;;;;;;30.20;20.00;;;;;;;;;;143744;586;47022;-85
2021/11/05 16:50:42;;;;;;;29.92;21.40;;;;;;;;;;143746;586;45914;-87
2021/11/05 16:53:10;;;;;;;34.85;21.67;;;;;;;;;;143736;601;46018;-87
2021/11/05 16:55:39;;;;;;;28.05;21.58;;;;;;;;;;143749;601;46018;-87
2021/11/05 16:58:08;;;;;;;28.58;20.40;;;;;;;;;;143745;612;47022;-87
2021/11/05 17:00:39;;;;;;;32.63;22.17;;;;;;;;;;143746;578;46020;-87
2021/11/05 17:03:07;;;;;;;38.85;23.08;;;;;;;;;;143746;573;47020;-88
2021/11/05 17:05:35;;;;;;;31.60;22.20;;;;;;;;;;143751;628;45021;-86
2021/11/05 17:08:04;;;;;;;26.42;21.20;;;;;;;;;;143747;614;47023;-88
2021/11/05 17:10:31;;;;;;;29.95;20.85;;;;;;;;;;143733;582;46012;-88
2021/11/05 17:12:58;;;;;;;22.62;20.20;;;;;;;;;;143749;582;46047;-88
2021/11/05 17:15:25;;;;;;;28.58;22.02;;;;;;;;;;143736;570;46021;-86
2021/11/05 17:17:52;;;;;;;33.53;24.70;;;;;;;;;;143746;594;47022;-86
2021/11/05 17:20:21;;;;;;;45.50;26.83;;;;;;;;;;143735;564;46030;-87
2021/11/05 17:22:48;;;;;;;37.80;24.58;;;;;;;;;;143747;583;47020;-87
2021/11/05 17:25:16;;;;;;;44.70;29.73;;;;;;;;;;143738;600;46018;-86
2021/11/05 17:27:43;;;;;;;37.40;26.92;;;;;;;;;;143746;569;47021;-88
2021/11/05 17:30:12;;;;;;;40.50;30.00;;;;;;;;;;143749;597;45914;-85
2021/11/05 17:32:39;;;;;;;39.35;29.08;;;;;;;;;;143748;597;47020;-86
2021/11/05 17:35:07;;;;;;;41.88;29.37;;;;;;;;;;143749;575;45021;-85
2021/11/05 17:37:34;;;;;;;36.63;27.87;;;;;;;;;;143746;591;47023;-86
2021/11/05 17:40:01;;;;;;;46.22;29.75;;;;;;;;;;143745;599;46020;-86
2021/11/05 17:42:28;;;;;;;43.42;28.05;;;;;;;;;;143734;575;47020;-86
2021/11/05 17:44:55;;;;;;;49.33;30.98;;;;;;;;;;143749;588;46018;-84
2021/11/05 17:47:22;;;;;;;50.63;30.88;;;;;;;;;;143747;611;46022;-85
2021/11/05 17:49:50;;;;;;;46.42;30.37;;;;;;;;;;143746;578;45914;-88
2021/11/05 17:52:17;;;;;;;49.08;31.42;;;;;;;;;;143746;573;47021;-87
2021/11/05 17:54:44;;;;;;;42.78;32.22;;;;;;;;;;143750;601;45020;-85
2021/11/05 17:57:13;;;;;;;41.33;31.05;;;;;;;;;;143735;586;47022;-85
2021/11/05 17:59:40;;;;;;;37.08;30.35;;;;;;;;;;143748;614;45914;-83
2021/11/05 18:02:07;;;;;;;47.33;31.58;;;;;;;;;;143735;575;47020;-85
2021/11/05 18:04:36;;;;;;;43.30;33.35;;;;;;;;;;143749;608;46018;-85
2021/11/05 18:07:03;;;;;;;46.08;33.28;;;;;;;;;;143745;657;47023;-85
2021/11/05 18:09:30;;;;;;;40.75;30.67;;;;;;;;;;143744;604;47020;-85
2021/11/05 18:11:59;;;;;;;43.80;30.37;;;;;;;;;;143746;603;47020;-85
2021/11/05 18:14:26;;;;;;;51.00;33.15;;;;;;;;;;143749;564;45021;-84
2021/11/05 18:16:54;;;;;;;40.70;30.50;;;;;;;;;;143746;658;47020;-84
2021/11/05 18:19:21;;;;;;;44.63;31.87;;;;;;;;;;143746;626;46914;-84
2021/11/05 18:21:49;;;;;;;52.65;33.10;;;;;;;;;;143747;579;47021;-86
2021/11/05 18:24:16;;;;;;;48.85;32.60;;;;;;;;;;143747;594;46018;-86
2021/11/05 18:26:43;;;;;;;51.05;32.30;;;;;;;;;;143750;601;46020;-86
2021/11/05 18:29:16;;;;;;;43.08;31.95;;;;;;;;;;143745;592;45914;-86
2021/11/05 18:31:43;;;;;;;37.20;29.90;;;;;;;;;;143746;583;47020;-85
2021/11/05 18:34:10;;;;;;;49.38;29.75;;;;;;;;;;143748;588;46019;-86
2021/11/05 18:36:37;;;;;;;49.60;31.08;;;;;;;;;;143746;593;47023;-85
2021/11/05 18:39:06;;;;;;;40.92;29.65;;;;;;;;;;143745;607;46025;-86
2021/11/05 18:41:34;;;;;;;43.35;30.77;;;;;;;;;;143748;626;47020;-86
2021/11/05 18:44:02;;;;;;;36.42;26.73;;;;;;;;;;143750;624;46021;-85
2021/11/05 18:46:29;;;;;;;39.38;27.13;;;;;;;;;;143747;577;47020;-85
2021/11/05 18:48:56;;;;;;;36.47;26.30;;;;;;;;;;143747;575;45914;-85
2021/11/05 18:51:24;;;;;;;39.03;29.00;;;;;;;;;;143749;564;47021;-85
2021/11/05 18:53:50;;;;;;;41.50;28.83;;;;;;;;;;143750;657;47020;-86
2021/11/05 18:56:17;;;;;;;41.17;27.60;;;;;;;;;;143745;593;47020;-85
2021/11/05 18:58:44;;;;;;;46.80;29.70;;;;;;;;;;143746;572;45914;-87
2021/11/05 19:01:10;;;;;;;52.53;31.25;;;;;;;;;;143748;622;47020;-86
2021/11/05 19:03:40;;;;;;;46.83;34.75;;;;;;;;;;143748;579;46020;-85
2021/11/05 19:06:07;;;;;;;45.33;33.67;;;;;;;;;;143730;564;49021;-85
2021/11/05 19:08:35;;;;;;;57.40;36.05;;;;;;;;;;913224;65;746898;-86
2021/11/05 19:11:04;;;;;;;49.03;35.80;;;;;;;;;;280368;65;47022;-85
2021/11/05 19:13:35;;;;;;;48.60;35.60;;;;;;;;;;143749;588;45019;-86
2021/11/05 19:16:10;;;;;;;47.25;31.90;;;;;;;;;;143747;576;47022;-86
2021/11/05 19:18:38;;;;;;;38.42;31.52;;;;;;;;;;143746;627;45913;-86
2021/11/05 19:21:06;;;;;;;56.22;37.03;;;;;;;;;;143746;590;47021;-85
2021/11/05 19:23:34;;;;;;;47.50;34.67;;;;;;;;;;143749;672;45020;-86
2021/11/05 19:26:02;;;;;;;48.15;36.17;;;;;;;;;;143746;583;47022;-85
2021/11/05 19:28:30;;;;;;;53.95;38.63;;;;;;;;;;143746;638;47021;-89
2021/11/05 19:30:57;;;;;;;56.22;37.95;;;;;;;;;;143748;598;46020;-86
2021/11/05 19:33:24;;;;;;;48.17;35.25;;;;;;;;;;143749;569;45020;-88
2021/11/05 19:35:51;;;;;;;52.85;33.53;;;;;;;;;;143744;559;47021;-88
2021/11/05 19:38:18;;;;;;;46.88;36.50;;;;;;;;;;143747;574;45914;-86
2021/11/05 19:40:45;;;;;;;51.33;35.78;;;;;;;;;;143748;565;46020;-87
2021/11/05 19:43:12;;;;;;;49.42;34.35;;;;;;;;;;143747;572;46018;-86
2021/11/05 19:45:41;;;;;;;47.08;33.63;;;;;;;;;;143733;585;47023;-88
2021/11/05 19:48:09;;;;;;;56.47;37.85;;;;;;;;;;143744;659;46022;-86
2021/11/05 19:50:36;;;;;;;47.33;37.28;;;;;;;;;;143735;581;47021;-87
2021/11/05 19:53:05;;;;;;;48.25;33.70;;;;;;;;;;143749;626;46020;-85
2021/11/05 19:55:32;;;;;;;45.20;34.03;;;;;;;;;;143745;605;47020;-86
2021/11/05 19:57:59;;;;;;;44.55;34.85;;;;;;;;;;143746;571;45913;-86
2021/11/05 20:00:28;;;;;;;47.55;36.38;;;;;;;;;;143747;573;47020;-85
2021/11/05 20:03:00;;;;;;;47.08;35.00;;;;;;;;;;143750;579;46020;-86
2021/11/05 20:05:29;;;;;;;58.33;35.55;;;;;;;;;;143746;598;47021;-86
2021/11/05 20:08:10;;;;;;;46.00;34.72;;;;;;;;;;143746;581;46020;-86